Time;durP1;ratioP1;P1;durP2;ratioP2;P2;SDS_P1;SDS_P2;PMS_P1;PMS_P2;Temp;Humidity;BMP_temperature;BMP_pressure;BME280_temperature;BME280_humidity;BME280_pressure;Samples;Min_cycle;Max_cycle;Signal;HPM_P1;HPM_P2
2022/01/13 00:00:03;;;;;;;27.80;15.40;;;;;;;1.70;86.94;102525.98;1631707;88;21170;-73
2022/01/13 00:02:36;;;;;;;28.03;15.30;;;;;;;1.67;86.83;102515.13;1631376;88;21024;-76
2022/01/13 00:05:04;;;;;;;30.27;15.67;;;;;;;1.63;86.78;102530.47;1631492;88;21075;-73
2022/01/13 00:07:31;;;;;;;29.00;15.87;;;;;;;1.60;86.96;102522.61;1631694;88;21103;-73
2022/01/13 00:09:58;;;;;;;32.80;16.23;;;;;;;1.58;86.95;102530.72;1631529;88;21047;-73
2022/01/13 00:12:30;;;;;;;28.47;15.43;;;;;;;1.56;86.91;102528.10;1631673;88;21136;-73
2022/01/13 00:17:33;;;;;;;29.57;16.17;;;;;;;1.51;86.85;102532.23;1602724;88;21484;-73
2022/01/13 00:20:12;;;;;;;30.70;17.70;;;;;;;1.48;86.86;102529.54;1631259;88;21036;-73
2022/01/13 00:24:59;;;;;;;27.73;17.83;;;;;;;1.42;86.76;102529.34;1600775;88;22158;-73
2022/01/13 00:27:26;;;;;;;28.33;17.20;;;;;;;1.39;86.70;102529.23;1631700;88;21012;-73
2022/01/13 00:29:55;;;;;;;35.30;19.20;;;;;;;1.35;86.53;102535.97;1631360;88;21067;-75
2022/01/13 00:32:24;;;;;;;31.70;16.77;;;;;;;1.34;86.52;102537.69;1631848;88;21019;-77
2022/01/13 00:34:50;;;;;;;28.00;17.57;;;;;;;1.33;86.63;102533.74;1631585;88;21410;-73
2022/01/13 00:37:18;;;;;;;25.57;15.37;;;;;;;1.33;86.49;102544.08;1631739;88;21123;-73
2022/01/13 00:39:45;;;;;;;26.10;15.17;;;;;;;1.30;86.43;102558.19;1631344;88;21031;-75
2022/01/13 00:42:11;;;;;;;21.47;13.53;;;;;;;1.28;86.35;102544.36;1631615;88;21004;-73
2022/01/13 00:44:39;;;;;;;23.20;14.23;;;;;;;1.27;86.27;102543.87;1631381;88;21063;-73
2022/01/13 00:47:09;;;;;;;28.47;15.73;;;;;;;1.26;86.29;102543.41;1631881;88;21112;-73
2022/01/13 00:49:36;;;;;;;25.47;15.17;;;;;;;1.25;86.34;102542.96;1631477;88;21043;-73
2022/01/13 00:52:04;;;;;;;22.83;14.10;;;;;;;1.23;86.31;102550.64;1631543;88;21489;-73
2022/01/13 00:54:34;;;;;;;23.47;12.90;;;;;;;1.23;86.17;102549.77;1631550;88;21023;-73
2022/01/13 00:57:01;;;;;;;24.03;12.50;;;;;;;1.23;86.10;102552.34;1631418;88;21043;-75
2022/01/13 00:59:29;;;;;;;23.73;13.33;;;;;;;1.25;85.96;102568.80;1631434;88;21053;-75
2022/01/13 01:01:56;;;;;;;19.33;12.10;;;;;;;1.25;85.94;102575.25;1631375;88;21139;-73
2022/01/13 01:04:24;;;;;;;16.87;11.07;;;;;;;1.27;85.91;102573.58;1631398;88;21051;-76
2022/01/13 01:06:51;;;;;;;19.27;11.27;;;;;;;1.28;85.86;102548.23;1631483;88;21054;-73
2022/01/13 01:09:30;;;;;;;21.40;12.77;;;;;;;1.28;85.83;102511.64;1631515;88;21055;-73
2022/01/13 01:11:51;;;;;;;20.00;12.73;;;;;;;1.27;85.85;102510.28;1631298;88;21043;-77
2022/01/13 01:14:18;;;;;;;24.63;12.43;;;;;;;1.26;85.79;102521.45;1631427;88;22121;-73
2022/01/13 01:16:46;;;;;;;23.17;12.90;;;;;;;1.26;85.71;102521.45;1631318;88;21513;-73
2022/01/13 01:19:14;;;;;;;21.57;12.27;;;;;;;1.28;85.73;102518.52;1631451;88;21039;-75
2022/01/13 01:26:51;;;;;;;20.33;12.27;;;;;;;1.29;85.51;102486.68;1631557;88;21289;-73
2022/01/13 01:31:53;;;;;;;20.53;11.93;;;;;;;1.30;85.49;102489.72;1631622;88;21120;-74
2022/01/13 01:36:52;;;;;;;23.77;13.97;;;;;;;1.29;85.48;102482.80;1631658;88;21058;-75
2022/01/13 01:39:19;;;;;;;21.20;12.67;;;;;;;1.25;85.39;102474.08;1631468;88;21147;-73
2022/01/13 01:41:50;;;;;;;21.50;13.10;;;;;;;1.24;85.27;102468.42;1631609;88;20928;-73
2022/01/13 01:44:36;;;;;;;19.07;12.27;;;;;;;1.22;85.24;102467.52;1631392;88;21055;-77
2022/01/13 01:47:00;;;;;;;22.03;11.23;;;;;;;1.22;85.29;102462.73;1631643;88;21047;-73
2022/01/13 01:49:31;;;;;;;19.60;11.40;;;;;;;1.23;85.29;102461.52;1631496;88;21196;-73
2022/01/13 01:52:01;;;;;;;21.40;11.68;;;;;;;1.24;85.23;102468.84;1631883;88;21184;-73
2022/01/13 01:54:28;;;;;;;;;;;;;;;1.22;85.19;102461.45;1633833;88;21039;-76
2022/01/13 01:56:56;;;;;;;21.43;11.93;;;;;;;1.19;85.16;102466.12;1631670;88;20183;-73
2022/01/13 01:59:29;;;;;;;23.83;13.17;;;;;;;1.17;85.19;102470.77;1631396;88;21035;-73
2022/01/13 02:01:54;;;;;;;23.07;12.53;;;;;;;1.12;85.21;102468.02;1631636;88;21112;-73
2022/01/13 02:04:24;;;;;;;23.93;13.07;;;;;;;1.12;85.21;102466.73;1631345;88;22393;-73
2022/01/13 02:06:52;;;;;;;21.68;12.25;;;;;;;1.13;85.14;102463.73;1631370;88;21100;-73
2022/01/13 02:09:20;;;;;;;20.37;12.07;;;;;;;1.13;85.07;102462.02;1631595;88;21476;-74
2022/01/13 02:11:53;;;;;;;18.13;11.37;;;;;;;1.11;85.04;102469.73;1631712;88;21103;-73
2022/01/13 02:16:59;;;;;;;20.80;12.00;;;;;;;1.12;85.04;102480.94;1631397;88;21517;-73
2022/01/13 02:19:27;;;;;;;21.10;12.10;;;;;;;1.15;85.08;102475.00;1631556;88;21611;-74
2022/01/13 02:21:54;;;;;;;24.43;13.60;;;;;;;1.15;85.12;102470.70;1631407;88;21028;-77
2022/01/13 02:24:21;;;;;;;21.83;13.00;;;;;;;1.18;85.18;102475.09;1631571;88;21557;-73
2022/01/13 02:26:48;;;;;;;22.23;14.13;;;;;;;1.17;85.12;102474.65;1631623;88;21091;-73
2022/01/13 02:29:15;;;;;;;25.80;13.63;;;;;;;1.17;85.04;102467.77;1631267;88;22321;-73
2022/01/13 02:31:42;;;;;;;23.10;12.27;;;;;;;1.18;84.93;102466.93;1631577;88;21016;-73
2022/01/13 02:34:09;;;;;;;25.47;13.53;;;;;;;1.20;84.88;102473.45;1631383;88;21008;-73
2022/01/13 02:36:37;;;;;;;26.43;14.00;;;;;;;1.20;84.88;102460.13;1631732;88;21067;-73
2022/01/13 02:39:04;;;;;;;24.13;12.77;;;;;;;1.22;84.87;102463.64;1631373;88;21587;-73
2022/01/13 02:41:31;;;;;;;26.23;14.80;;;;;;;1.23;84.84;102458.06;1631713;88;21148;-73
2022/01/13 02:43:59;;;;;;;27.40;14.50;;;;;;;1.23;84.85;102467.98;1631371;88;21043;-76
2022/01/13 02:47:05;;;;;;;23.27;14.53;;;;;;;1.24;84.99;102470.14;1631607;88;21027;-73
2022/01/13 02:49:03;;;;;;;21.37;13.53;;;;;;;1.26;85.01;102454.29;1634658;86;21012;-73
2022/01/13 02:51:30;;;;;;;25.77;14.37;;;;;;;1.28;84.93;102466.85;1631594;88;21575;-73
2022/01/13 02:53:57;;;;;;;25.27;15.10;;;;;;;1.31;84.80;102469.53;1631222;88;21152;-73
2022/01/13 02:56:27;;;;;;;24.57;13.97;;;;;;;1.32;84.78;102468.28;1631692;88;21576;-73
2022/01/13 02:58:55;;;;;;;24.85;13.83;;;;;;;1.35;84.77;102475.25;1631502;88;21063;-75
2022/01/13 03:01:22;;;;;;;30.23;15.47;;;;;;;1.37;84.80;102474.03;1631649;88;21035;-72
2022/01/13 03:03:48;;;;;;;28.43;14.13;;;;;;;1.42;84.79;102482.83;1631417;88;21123;-73
2022/01/13 03:06:35;;;;;;;28.90;14.83;;;;;;;1.44;84.79;102478.17;1631554;88;21152;-73
2022/01/13 03:08:59;;;;;;;25.43;15.37;;;;;;;1.46;84.79;102480.38;1632048;86;21493;-73
2022/01/13 03:11:38;;;;;;;27.57;15.53;;;;;;;1.46;84.85;102482.09;1631655;88;21082;-77
2022/01/13 03:14:11;;;;;;;26.47;16.17;;;;;;;1.46;84.85;102471.75;1631854;88;21043;-73
2022/01/13 03:16:41;;;;;;;24.80;14.40;;;;;;;1.46;84.74;102473.91;1631594;88;21099;-73
2022/01/13 03:19:09;;;;;;;26.27;15.43;;;;;;;1.46;84.64;102467.45;1631973;88;22036;-72
2022/01/13 03:21:37;;;;;;;25.43;14.67;;;;;;;1.48;84.63;102464.94;1631337;88;21067;-74
2022/01/13 03:24:09;;;;;;;29.17;15.60;;;;;;;1.49;84.64;102466.67;1631770;88;21012;-73
2022/01/13 03:26:35;;;;;;;23.77;13.53;;;;;;;1.50;84.58;102452.53;1631432;88;21075;-73
2022/01/13 03:31:40;;;;;;;25.20;15.10;;;;;;;1.52;84.61;102447.01;1631477;88;21131;-73
2022/01/13 03:34:07;;;;;;;25.83;14.60;;;;;;;1.53;84.65;102436.25;1631414;88;21516;-73
2022/01/13 03:36:34;;;;;;;29.63;16.33;;;;;;;1.54;84.81;102438.86;1631455;88;21015;-73
2022/01/13 03:39:01;;;;;;;26.57;16.07;;;;;;;1.54;84.73;102435.41;1631592;88;21054;-73
2022/01/13 03:41:28;;;;;;;27.20;15.50;;;;;;;1.55;84.68;102430.30;1631588;88;21111;-72
2022/01/13 03:43:55;;;;;;;27.50;14.03;;;;;;;1.58;84.64;102438.58;1631370;88;22213;-73
2022/01/13 03:46:22;;;;;;;22.77;13.97;;;;;;;1.61;84.71;102423.55;1631391;88;21050;-73
2022/01/13 03:48:49;;;;;;;23.90;14.17;;;;;;;1.63;84.71;102425.36;1631582;88;21111;-73
2022/01/13 03:51:17;;;;;;;26.60;14.77;;;;;;;1.68;84.75;102429.39;1631373;88;21098;-73
2022/01/13 03:54:13;;;;;;;27.43;14.00;;;;;;;1.72;84.80;102419.63;1631519;88;21027;-76
2022/01/13 03:57:09;;;;;;;24.93;13.60;;;;;;;1.75;84.79;102419.72;1583522;90;21840;-73
2022/01/13 04:00:19;;;;;;;24.13;14.27;;;;;;;1.80;84.81;102420.72;1608638;89;20979;-73
2022/01/13 04:02:47;;;;;;;25.00;15.58;;;;;;;1.80;84.75;102419.42;1631872;88;21520;-73
2022/01/13 04:05:14;;;;;;;31.60;16.73;;;;;;;1.80;84.84;102416.84;1631377;88;21035;-76
2022/01/13 04:07:41;;;;;;;28.33;15.23;;;;;;;1.79;84.86;102410.80;1631755;88;21058;-73
2022/01/13 04:10:50;;;;;;;30.97;15.97;;;;;;;1.82;84.90;102410.44;1631446;88;21072;-72
2022/01/13 04:13:43;;;;;;;24.20;14.07;;;;;;;1.86;84.84;102405.81;1631706;88;21055;-72
2022/01/13 04:15:52;;;;;;;28.77;15.20;;;;;;;1.87;84.81;102395.95;1630743;88;21008;-72
2022/01/13 04:18:19;;;;;;;25.80;14.13;;;;;;;1.89;84.87;102394.30;1631659;88;21055;-72
2022/01/13 04:20:46;;;;;;;25.07;14.43;;;;;;;1.91;84.86;102392.22;1631477;88;21078;-72
2022/01/13 04:23:13;;;;;;;25.10;15.13;;;;;;;1.94;84.90;102393.99;1631744;88;21981;-72
2022/01/13 04:25:44;;;;;;;27.23;15.60;;;;;;;1.96;84.93;102390.62;1631411;88;20996;-72
2022/01/13 04:28:13;;;;;;;25.17;16.03;;;;;;;1.99;84.99;102374.33;1631761;88;21484;-72
2022/01/13 04:33:07;;;;;;;26.80;14.67;;;;;;;2.00;84.99;102374.38;1631686;88;21542;-73
2022/01/13 04:35:34;;;;;;;27.80;15.13;;;;;;;2.03;84.91;102373.59;1631461;88;21146;-72
2022/01/13 04:38:02;;;;;;;30.20;14.67;;;;;;;2.06;84.86;102370.23;1631614;88;21019;-72
2022/01/13 04:40:29;;;;;;;25.90;14.60;;;;;;;2.07;84.87;102362.92;1631570;88;21055;-73
2022/01/13 04:42:56;;;;;;;24.00;13.93;;;;;;;2.10;84.87;102361.29;1631674;88;21039;-72
2022/01/13 04:45:25;;;;;;;28.27;14.57;;;;;;;2.13;84.87;102359.21;1631416;88;21612;-72
2022/01/13 04:47:54;;;;;;;23.87;14.17;;;;;;;2.15;84.89;102351.09;1631670;88;21958;-72
2022/01/13 04:50:23;;;;;;;24.47;16.07;;;;;;;2.17;84.93;102356.77;1631473;88;21500;-72
2022/01/13 04:52:51;;;;;;;27.93;15.53;;;;;;;2.18;85.01;102352.05;1631590;88;21047;-72
2022/01/13 04:55:24;;;;;;;27.30;16.70;;;;;;;2.18;84.96;102351.17;1631482;88;21513;-72
2022/01/13 04:57:48;;;;;;;24.80;14.90;;;;;;;2.17;84.94;102359.36;1632285;86;21071;-72
2022/01/13 05:00:16;;;;;;;27.17;14.83;;;;;;;2.18;84.93;102362.81;1631433;88;21159;-72
2022/01/13 05:02:43;;;;;;;24.57;14.57;;;;;;;2.20;84.84;102367.62;1631587;88;21545;-72
2022/01/13 05:05:11;;;;;;;22.83;13.93;;;;;;;2.21;84.84;102355.13;1631463;88;21031;-72
2022/01/13 05:07:38;;;;;;;25.97;13.97;;;;;;;2.21;84.92;102358.59;1631570;88;21060;-76
2022/01/13 05:10:07;;;;;;;31.23;15.87;;;;;;;2.26;84.92;102355.28;1631424;88;21536;-72
2022/01/13 05:12:43;;;;;;;26.33;14.73;;;;;;;2.27;84.94;102351.84;1631630;88;21173;-72
2022/01/13 05:15:18;;;;;;;24.77;13.10;;;;;;;2.30;84.96;102359.69;1631424;88;21004;-72
2022/01/13 05:20:28;;;;;;;22.80;12.27;;;;;;;2.34;85.05;102339.13;1631474;88;21073;-72
2022/01/13 05:22:54;;;;;;;24.30;13.10;;;;;;;2.37;85.02;102338.34;1631803;86;21123;-72
2022/01/13 05:25:22;;;;;;;21.20;13.17;;;;;;;2.38;85.01;102340.98;1631308;88;21221;-72
2022/01/13 05:27:49;;;;;;;24.40;13.33;;;;;;;2.38;85.07;102329.73;1631491;88;21537;-72
2022/01/13 05:30:17;;;;;;;23.30;13.83;;;;;;;2.39;85.18;102327.63;1631380;88;21103;-72
2022/01/13 05:32:46;;;;;;;20.97;12.33;;;;;;;2.41;85.20;102329.42;1631584;88;21083;-72
2022/01/13 05:35:17;;;;;;;20.77;11.37;;;;;;;2.43;85.22;102313.91;1631353;88;21047;-72
2022/01/13 05:37:45;;;;;;;21.17;11.60;;;;;;;2.45;85.22;102310.53;1631668;88;22003;-76
2022/01/13 05:40:13;;;;;;;22.60;11.53;;;;;;;2.49;85.12;102313.20;1631382;88;21007;-72
2022/01/13 05:42:41;;;;;;;21.27;10.60;;;;;;;2.49;85.15;102313.20;1631591;88;21046;-72
2022/01/13 05:45:15;;;;;;;21.90;10.50;;;;;;;2.51;85.20;102317.59;1631306;88;21040;-72
2022/01/13 05:47:38;;;;;;;19.37;10.75;;;;;;;2.53;85.20;102302.98;1632453;86;21066;-72
2022/01/13 05:50:08;;;;;;;16.80;9.63;;;;;;;2.54;85.15;102308.61;1631435;88;21332;-72
2022/01/13 05:52:35;;;;;;;16.73;10.03;;;;;;;2.55;85.16;102309.09;1631683;88;21509;-72
2022/01/13 05:55:05;;;;;;;18.90;10.20;;;;;;;2.56;85.12;102320.31;1631351;88;21107;-72
2022/01/13 05:57:32;;;;;;;17.23;10.13;;;;;;;2.58;85.23;102329.00;1631436;88;21965;-72
2022/01/13 06:00:00;;;;;;;17.27;10.47;;;;;;;2.62;85.25;102326.94;1631418;88;21035;-72
2022/01/13 06:02:27;;;;;;;16.53;10.47;;;;;;;2.64;85.18;102329.16;1631544;88;21211;-73
2022/01/13 06:04:54;;;;;;;19.30;11.03;;;;;;;2.64;85.22;102331.33;1631266;88;21079;-72
2022/01/13 06:07:21;;;;;;;20.20;11.77;;;;;;;2.63;85.29;102336.45;1631622;88;21059;-72
2022/01/13 06:09:50;;;;;;;26.13;14.67;;;;;;;2.63;85.29;102341.23;1631639;88;21478;-72
2022/01/13 06:12:19;;;;;;;23.50;13.17;;;;;;;2.63;85.21;102339.03;1631354;88;21347;-72
2022/01/13 06:14:46;;;;;;;20.80;12.20;;;;;;;2.62;85.17;102334.28;1631655;88;21125;-72
2022/01/13 06:17:13;;;;;;;21.77;11.50;;;;;;;2.64;85.18;102330.03;1631590;88;21084;-72
2022/01/13 06:19:40;;;;;;;17.27;9.53;;;;;;;2.65;85.16;102336.08;1631546;88;21577;-72
2022/01/13 06:22:07;;;;;;;19.20;10.93;;;;;;;2.63;85.07;102328.29;1613754;89;21038;-71
2022/01/13 06:24:34;;;;;;;22.50;10.43;;;;;;;2.63;85.05;102324.80;1613727;88;21066;-72
2022/01/13 06:27:01;;;;;;;19.60;10.03;;;;;;;2.63;85.15;102336.45;1613568;89;21153;-72
2022/01/13 06:29:28;;;;;;;18.50;10.70;;;;;;;2.64;85.18;102356.34;1613675;89;21051;-72
2022/01/13 06:31:56;;;;;;;15.37;10.23;;;;;;;2.64;85.17;102345.56;1613762;89;21098;-72
2022/01/13 06:34:24;;;;;;;20.33;11.50;;;;;;;2.66;85.22;102348.17;1613488;89;21083;-72
2022/01/13 06:36:51;;;;;;;19.80;10.67;;;;;;;2.67;85.26;102346.94;1613680;89;21106;-72
2022/01/13 06:39:20;;;;;;;19.50;10.63;;;;;;;2.66;85.18;102343.90;1613649;88;21106;-72
2022/01/13 06:41:47;;;;;;;20.20;11.40;;;;;;;2.66;85.22;102340.02;1613403;88;21066;-75
2022/01/13 06:44:14;;;;;;;20.47;11.67;;;;;;;2.67;85.22;102341.76;1613772;89;21082;-72
2022/01/13 06:46:41;;;;;;;24.67;13.53;;;;;;;2.67;85.38;102339.59;1613483;89;21059;-72
2022/01/13 06:49:08;;;;;;;19.03;11.00;;;;;;;2.66;85.33;102337.82;1613718;87;21108;-72
2022/01/13 06:51:35;;;;;;;23.87;11.83;;;;;;;2.67;85.37;102330.53;1613553;88;21513;-74
2022/01/13 06:54:02;;;;;;;23.17;10.63;;;;;;;2.67;85.29;102329.23;1613722;87;21019;-72
2022/01/13 06:56:30;;;;;;;22.73;12.23;;;;;;;2.66;85.29;102321.89;1613555;89;21118;-72
2022/01/13 06:58:57;;;;;;;19.13;10.70;;;;;;;2.66;85.24;102328.36;1613719;89;21099;-72
2022/01/13 07:01:24;;;;;;;18.97;10.77;;;;;;;2.68;85.35;102323.20;1613486;89;21023;-71
2022/01/13 07:03:52;;;;;;;18.07;10.17;;;;;;;2.68;85.28;102320.63;1613776;89;21133;-72
2022/01/13 07:06:18;;;;;;;19.33;10.50;;;;;;;2.69;85.36;102318.51;1613376;89;21106;-72
2022/01/13 07:08:46;;;;;;;16.87;9.90;;;;;;;2.72;85.34;102321.17;1613792;89;21532;-72
2022/01/13 07:11:13;;;;;;;18.17;10.73;;;;;;;2.73;85.33;102303.92;1613485;89;21042;-72
2022/01/13 07:13:40;;;;;;;20.27;11.27;;;;;;;2.74;85.29;102290.99;1613729;89;21007;-72
2022/01/13 07:16:07;;;;;;;19.23;10.47;;;;;;;2.77;85.32;102287.22;1608606;89;21563;-72
2022/01/13 07:18:39;;;;;;;21.63;11.73;;;;;;;2.75;85.27;102277.66;1631559;88;21032;-72
2022/01/13 07:21:11;;;;;;;22.07;10.73;;;;;;;2.75;85.34;102273.77;1631477;88;21084;-72
2022/01/13 07:23:39;;;;;;;17.60;9.77;;;;;;;2.73;85.31;102280.19;1606914;88;21059;-72
2022/01/13 07:26:06;;;;;;;19.23;10.37;;;;;;;2.73;85.34;102287.09;1613381;88;21034;-72
2022/01/13 07:28:33;;;;;;;18.90;10.90;;;;;;;2.74;85.24;102280.64;1613659;89;21187;-72
2022/01/13 07:31:00;;;;;;;16.20;9.97;;;;;;;2.75;85.21;102284.13;1613452;89;21011;-72
2022/01/13 07:33:28;;;;;;;21.87;9.83;;;;;;;2.75;85.19;102293.19;1613649;89;21523;-72
2022/01/13 07:35:55;;;;;;;16.17;9.57;;;;;;;2.75;85.21;102285.42;1608378;89;21059;-72
2022/01/13 07:38:22;;;;;;;19.90;11.50;;;;;;;2.75;85.22;102290.17;1613699;89;21057;-72
2022/01/13 07:40:51;;;;;;;19.33;9.50;;;;;;;2.77;85.23;102293.69;1613497;87;21156;-73
2022/01/13 07:43:22;;;;;;;16.10;9.23;;;;;;;2.76;85.22;102295.80;1613693;89;21059;-73
2022/01/13 07:45:47;;;;;;;17.93;10.27;;;;;;;2.79;85.30;102303.64;1586557;89;21050;-74
2022/01/13 07:48:14;;;;;;;17.90;10.43;;;;;;;2.83;85.30;102296.42;1608852;89;21075;-72
2022/01/13 07:50:41;;;;;;;16.97;9.77;;;;;;;2.84;85.29;102297.30;1631478;88;21039;-73
2022/01/13 07:53:08;;;;;;;20.70;11.40;;;;;;;2.87;85.25;102294.78;1613823;89;21115;-72
2022/01/13 07:55:35;;;;;;;19.60;10.87;;;;;;;2.85;85.17;102296.45;1608639;89;21058;-72
2022/01/13 07:58:02;;;;;;;22.53;12.47;;;;;;;2.84;85.30;102289.10;1608766;89;21020;-73
2022/01/13 08:00:30;;;;;;;22.40;12.83;;;;;;;2.86;85.29;102296.50;1631406;87;21054;-73
2022/01/13 08:02:57;;;;;;;18.30;12.17;;;;;;;2.85;85.18;102303.80;1631710;88;21582;-72
2022/01/13 08:05:24;;;;;;;27.87;15.77;;;;;;;2.85;85.07;102297.32;1631381;88;21154;-72
2022/01/13 08:07:51;;;;;;;23.60;13.57;;;;;;;2.84;85.02;102301.18;1631480;88;21020;-73
2022/01/13 08:10:18;;;;;;;30.17;16.17;;;;;;;2.84;85.04;102299.89;1631756;88;21054;-73
2022/01/13 08:12:45;;;;;;;28.23;14.93;;;;;;;2.84;85.05;102305.94;1631350;88;21047;-72
2022/01/13 08:15:14;;;;;;;19.77;10.50;;;;;;;2.84;84.98;102311.12;1631664;88;21051;-72
2022/01/13 08:20:31;;;;;;;21.63;11.17;;;;;;;2.86;85.08;102324.99;1631702;88;21473;-72
2022/01/13 08:22:59;;;;;;;21.77;10.70;;;;;;;2.86;84.97;102328.01;1631521;88;21039;-72
2022/01/13 08:25:27;;;;;;;19.40;11.33;;;;;;;2.85;85.05;102329.69;1631553;88;21035;-73
2022/01/13 08:27:54;;;;;;;22.50;11.73;;;;;;;2.85;85.03;102324.52;1631489;88;21028;-72
2022/01/13 08:30:21;;;;;;;20.73;11.07;;;;;;;2.89;85.07;102321.61;1631661;88;21151;-72
2022/01/13 08:32:49;;;;;;;19.63;11.33;;;;;;;2.87;85.03;102348.74;1631363;88;21047;-72
2022/01/13 08:35:16;;;;;;;18.50;11.90;;;;;;;2.84;84.98;102326.66;1631706;88;21039;-73
2022/01/13 08:37:43;;;;;;;22.80;11.93;;;;;;;2.82;85.04;102314.50;1631474;88;21095;-72
2022/01/13 08:40:13;;;;;;;22.27;10.83;;;;;;;2.81;84.97;102311.47;1631697;88;21118;-72
2022/01/13 08:42:40;;;;;;;19.50;11.40;;;;;;;2.81;85.02;102299.39;1631546;87;21118;-76
2022/01/13 08:45:11;;;;;;;22.57;10.40;;;;;;;2.80;84.92;102307.10;1631489;88;21079;-72
2022/01/13 08:47:39;;;;;;;18.23;10.87;;;;;;;2.80;84.98;102310.98;1631714;88;21056;-72
2022/01/13 08:50:08;;;;;;;16.63;10.20;;;;;;;2.77;84.95;102310.91;1631546;88;21035;-77
2022/01/13 08:52:39;;;;;;;23.50;12.60;;;;;;;2.76;85.00;102307.45;1631765;88;21556;-72
2022/01/13 08:55:08;;;;;;;20.87;11.33;;;;;;;2.78;85.11;102306.21;1631457;88;21275;-72
2022/01/13 08:57:35;;;;;;;17.40;10.63;;;;;;;2.80;85.13;102320.95;1631510;88;21047;-72
2022/01/13 09:00:06;;;;;;;21.83;10.23;;;;;;;2.79;85.08;102313.13;1631419;88;21058;-72
2022/01/13 09:02:33;;;;;;;25.90;12.80;;;;;;;2.79;85.08;102307.95;1631656;88;21081;-72
2022/01/13 09:05:03;;;;;;;29.60;14.93;;;;;;;2.81;85.23;102307.58;1631448;88;21078;-75
2022/01/13 09:07:31;;;;;;;24.07;12.68;;;;;;;2.83;85.20;102303.33;1631573;88;21989;-73
2022/01/13 09:09:58;;;;;;;25.10;13.50;;;;;;;2.81;85.23;102308.88;1631480;88;21043;-72
2022/01/13 09:12:26;;;;;;;28.73;14.63;;;;;;;2.82;85.38;102319.26;1631428;88;21087;-73
2022/01/13 09:15:02;;;;;;;29.73;15.30;;;;;;;2.82;85.26;102324.44;1631461;88;21051;-73
2022/01/13 09:17:23;;;;;;;26.60;13.63;;;;;;;2.81;85.27;102323.99;1631267;88;21024;-72
2022/01/13 09:19:51;;;;;;;24.27;13.60;;;;;;;2.84;85.33;102328.37;1631526;88;21113;-75
2022/01/13 09:22:20;;;;;;;23.30;12.37;;;;;;;2.84;85.27;102329.24;1631336;88;21298;-76
2022/01/13 09:24:50;;;;;;;23.40;12.73;;;;;;;2.82;85.18;102323.14;1631645;88;21102;-72
2022/01/13 09:27:17;;;;;;;27.37;14.28;;;;;;;2.79;85.21;102323.06;1631621;88;21047;-73
2022/01/13 09:29:44;;;;;;;26.20;13.60;;;;;;;2.80;85.26;102326.53;1631614;88;21023;-72
2022/01/13 09:32:11;;;;;;;27.53;14.70;;;;;;;2.78;85.31;102320.03;1631390;88;21102;-72
2022/01/13 09:34:41;;;;;;;29.63;14.70;;;;;;;2.77;85.39;102317.00;1631497;88;21079;-75
2022/01/13 09:37:07;;;;;;;27.60;13.87;;;;;;;2.79;85.42;102310.55;1631410;88;21055;-73
2022/01/13 09:39:34;;;;;;;28.13;14.73;;;;;;;2.79;85.47;102301.05;1631706;88;21016;-72
2022/01/13 09:42:02;;;;;;;25.47;12.77;;;;;;;2.80;85.46;102301.53;1631517;88;21031;-72
2022/01/13 09:44:29;;;;;;;28.57;14.83;;;;;;;2.82;85.53;102297.24;1631511;88;21122;-72
2022/01/13 09:46:56;;;;;;;28.50;15.30;;;;;;;2.84;85.55;102299.47;1631270;88;21527;-76
2022/01/13 09:49:23;;;;;;;30.13;17.70;;;;;;;2.85;85.48;102288.25;1631576;88;21071;-73
2022/01/13 09:51:50;;;;;;;28.63;17.20;;;;;;;2.83;85.60;102282.19;1631417;88;21321;-73
2022/01/13 09:54:17;;;;;;;28.37;15.83;;;;;;;2.84;85.76;102278.74;1631334;88;21067;-72
2022/01/13 09:56:45;;;;;;;22.97;13.50;;;;;;;2.88;85.80;102287.45;1631361;88;21140;-76
2022/01/13 09:59:12;;;;;;;22.77;13.13;;;;;;;2.89;85.71;102275.85;1631190;88;21031;-73
2022/01/13 10:01:40;;;;;;;26.17;13.80;;;;;;;2.92;85.71;102281.53;1631392;88;21079;-73
2022/01/13 10:04:07;;;;;;;22.87;13.47;;;;;;;2.94;85.63;102266.91;1631335;88;21596;-73
2022/01/13 10:06:46;;;;;;;27.20;13.03;;;;;;;2.95;85.54;102276.84;1631378;88;21032;-73
2022/01/13 10:09:13;;;;;;;21.77;12.73;;;;;;;2.96;85.61;102276.00;1631205;88;21147;-72
2022/01/13 10:11:48;;;;;;;23.13;12.17;;;;;;;2.99;85.66;102283.41;1631467;88;21043;-72
2022/01/13 10:17:01;;;;;;;21.17;12.37;;;;;;;3.03;85.65;102268.84;1631385;88;21099;-73
2022/01/13 10:19:44;;;;;;;23.17;12.77;;;;;;;3.06;85.73;102285.33;1631425;88;21063;-73
2022/01/13 10:22:14;;;;;;;19.80;11.53;;;;;;;3.12;85.74;102274.23;1631559;88;21346;-73
2022/01/13 10:24:45;;;;;;;20.80;11.48;;;;;;;3.16;85.69;102276.47;1631391;88;21063;-73
2022/01/13 10:27:19;;;;;;;20.53;12.03;;;;;;;3.18;85.74;102269.19;1631603;88;21062;-73
2022/01/13 10:29:56;;;;;;;23.30;13.27;;;;;;;3.19;85.61;102259.30;1631451;88;20972;-73
2022/01/13 10:32:34;;;;;;;21.10;12.87;;;;;;;3.16;85.64;102252.75;1631731;88;21039;-73
2022/01/13 10:35:10;;;;;;;23.83;12.40;;;;;;;3.18;85.76;102239.39;1630741;88;21168;-74
2022/01/13 10:37:40;;;;;;;19.17;11.83;;;;;;;3.21;85.74;102230.38;1631567;88;21039;-75
2022/01/13 10:40:17;;;;;;;22.80;12.28;;;;;;;3.22;85.67;102243.81;1631436;88;28006;-73
2022/01/13 10:45:38;;;;;;;20.10;11.27;;;;;;;3.23;85.58;102223.95;1631306;88;21434;-73
2022/01/13 10:48:11;;;;;;;18.67;10.13;;;;;;;3.23;85.54;102218.77;1631406;88;21148;-73
2022/01/13 10:50:46;;;;;;;18.97;10.70;;;;;;;3.24;85.62;102217.52;1629167;88;21091;-72
2022/01/13 10:53:25;;;;;;;19.23;11.60;;;;;;;3.26;85.64;102208.05;1631548;88;21035;-76
2022/01/13 10:55:57;;;;;;;19.33;10.70;;;;;;;3.30;85.68;102210.30;1631357;88;21031;-76
2022/01/13 10:58:32;;;;;;;19.93;11.13;;;;;;;3.33;85.69;102196.11;1631458;88;21529;-73
2022/01/13 11:01:02;;;;;;;18.50;10.67;;;;;;;3.38;85.71;102204.87;1631330;88;21142;-74
2022/01/13 11:03:31;;;;;;;19.75;11.35;;;;;;;3.41;85.67;102211.41;1631579;88;21043;-74
2022/01/13 11:06:05;;;;;;;20.20;11.63;;;;;;;3.41;85.67;102212.70;1631372;88;21066;-73
2022/01/13 11:08:40;;;;;;;22.80;11.33;;;;;;;3.42;85.68;102210.98;1631550;88;21060;-73
2022/01/13 11:11:25;;;;;;;21.53;9.47;;;;;;;3.43;85.68;102207.53;1631412;88;21640;-73
2022/01/13 11:14:08;;;;;;;17.47;10.17;;;;;;;3.46;85.63;102198.52;1613752;89;21304;-73
2022/01/13 11:16:30;;;;;;;20.57;10.27;;;;;;;3.50;85.60;102207.70;1608309;89;22022;-73
2022/01/13 11:18:59;;;;;;;19.80;10.90;;;;;;;3.55;85.60;102198.31;1608801;89;21075;-76
2022/01/13 11:21:27;;;;;;;22.63;11.27;;;;;;;3.59;85.54;102199.23;1631406;88;21055;-73
2022/01/13 11:23:56;;;;;;;18.53;9.50;;;;;;;3.64;85.50;102204.10;1631425;88;21056;-73
2022/01/13 11:26:27;;;;;;;16.37;8.90;;;;;;;3.68;85.45;102193.36;1613766;88;21127;-77
2022/01/13 11:28:55;;;;;;;;;;;;;;;3.68;85.31;102190.34;1616062;89;21067;-73
2022/01/13 11:31:22;;;;;;;19.80;11.67;;;;;;;3.71;85.32;102189.53;1608928;88;20154;-73
2022/01/13 11:33:50;;;;;;;31.33;14.30;;;;;;;3.71;85.36;102183.91;1631591;88;21552;-73
2022/01/13 11:36:18;;;;;;;28.50;13.53;;;;;;;3.76;85.42;102182.72;1631511;88;21531;-73
2022/01/13 11:38:59;;;;;;;23.93;12.07;;;;;;;3.80;85.45;102176.77;1631501;88;22316;-73
2022/01/13 11:41:26;;;;;;;22.95;10.70;;;;;;;3.85;85.28;102183.31;1587307;90;21062;-73
2022/01/13 11:43:55;;;;;;;27.30;11.90;;;;;;;3.89;85.14;102191.62;1608731;89;21039;-73
2022/01/13 11:46:27;;;;;;;20.60;10.30;;;;;;;3.95;85.14;102191.30;1628532;88;21051;-77
2022/01/13 11:49:15;;;;;;;21.23;9.90;;;;;;;3.97;85.05;102180.54;1631622;88;21051;-75
2022/01/13 11:54:40;;;;;;;22.00;10.10;;;;;;;4.04;84.92;102186.70;1613765;89;21046;-73
2022/01/13 11:57:23;;;;;;;20.43;11.20;;;;;;;4.07;84.79;102178.97;1614052;89;21512;-73
2022/01/13 12:00:01;;;;;;;19.70;10.20;;;;;;;4.10;84.88;102175.56;1613615;89;21091;-73
2022/01/13 12:02:41;;;;;;;17.90;10.13;;;;;;;4.12;84.78;102168.69;1615459;87;26468;-73
2022/01/13 12:05:16;;;;;;;19.20;9.80;;;;;;;4.12;84.70;102163.06;1612884;88;21170;-73